createdAt,value
2019-05-10T00:00:34.302Z,98518.72
2019-05-10T00:03:25.914Z,98529.21
2019-05-10T00:06:17.528Z,98524.93
2019-05-10T00:08:50.324Z,98524.36
2019-05-10T00:11:39.569Z,98529.98
2019-05-10T00:14:23.314Z,98529.01
2019-05-10T00:17:01.551Z,98526.12
2019-05-10T00:19:34.929Z,98543.19
2019-05-10T00:22:08.005Z,98537.75
2019-05-10T00:24:41.284Z,98536.95
2019-05-10T00:27:14.301Z,98538.33
2019-05-10T00:29:47.843Z,98541.83
2019-05-10T00:32:20.474Z,98540.84
2019-05-10T00:34:53.215Z,98544.34
2019-05-10T00:37:26.648Z,98540.82
2019-05-10T00:40:00.045Z,98552.09
2019-05-10T00:42:33.541Z,98548.25
2019-05-10T00:45:07.269Z,98549.98
2019-05-10T00:47:40.221Z,98552.32
2019-05-10T00:50:13.323Z,98549.22
2019-05-10T00:52:46.905Z,98552.14
2019-05-10T00:55:20.325Z,98558.16
2019-05-10T00:57:53.416Z,98556.22
2019-05-10T01:00:27.155Z,98554.08
2019-05-10T01:02:59.769Z,98557.19
2019-05-10T01:05:33.547Z,98556.41
2019-05-10T01:08:06.673Z,98563.80
2019-05-10T01:10:39.458Z,98562.63
2019-05-10T01:13:13.488Z,98561.27
2019-05-10T01:15:47.313Z,98557.97
2019-05-10T01:18:20.860Z,98566.91
2019-05-10T01:20:54.296Z,98568.27
2019-05-10T01:23:27.414Z,98561.67
2019-05-10T01:26:01.062Z,98568.27
2019-05-10T01:28:34.581Z,98569.83
2019-05-10T01:31:07.940Z,98565.77
2019-05-10T01:33:41.381Z,98569.44
2019-05-10T01:36:14.206Z,98576.06
2019-05-10T01:38:47.369Z,98582.06
2019-05-10T01:41:19.942Z,98583.22
2019-05-10T01:43:53.347Z,98581.85
2019-05-10T01:46:26.832Z,98582.08
2019-05-10T01:49:00.148Z,98583.21
2019-05-10T01:51:33.729Z,98588.08
2019-05-10T01:54:06.784Z,98581.67
2019-05-10T01:56:40.123Z,98590.80
2019-05-10T01:59:13.505Z,98587.50
2019-05-10T02:01:49.732Z,98589.83
2019-05-10T02:04:22.686Z,98591.02
2019-05-10T02:06:56.106Z,98588.65
2019-05-10T02:09:33.046Z,98587.70
2019-05-10T02:12:04.822Z,98592.38
2019-05-10T02:14:38.623Z,98588.14
2019-05-10T02:17:11.940Z,98585.84
2019-05-10T02:19:45.855Z,98592.42
2019-05-10T02:22:19.771Z,98596.50
2019-05-10T02:24:53.178Z,98599.05
2019-05-10T02:27:26.536Z,98598.08
2019-05-10T02:29:59.243Z,98595.39
2019-05-10T02:32:33.068Z,98607.81
2019-05-10T02:35:07.117Z,98597.38
2019-05-10T02:37:40.129Z,98602.03
2019-05-10T02:40:13.964Z,98608.05
2019-05-10T02:42:47.869Z,98615.61
2019-05-10T02:45:20.628Z,98607.46
2019-05-10T02:47:53.653Z,98611.34
2019-05-10T02:50:27.027Z,98613.84
2019-05-10T02:53:00.340Z,98613.29
2019-05-10T02:55:34.311Z,98617.95
2019-05-10T02:58:07.778Z,98616.78
2019-05-10T03:00:43.237Z,98621.06
2019-05-10T03:03:17.035Z,98627.25
2019-05-10T03:05:52.448Z,98625.32
2019-05-10T03:08:27.318Z,98623.78
2019-05-10T03:11:01.134Z,98628.22
2019-05-10T03:13:34.245Z,98641.42
2019-05-10T03:16:06.805Z,98634.44
2019-05-10T03:18:42.919Z,98644.15
2019-05-10T03:21:17.833Z,98642.40
2019-05-10T03:23:51.082Z,98640.83
2019-05-10T03:26:23.804Z,98642.59
2019-05-10T03:28:56.839Z,98646.45
2019-05-10T03:31:29.760Z,98650.13
2019-05-10T03:34:03.153Z,98639.67
2019-05-10T03:36:37.008Z,98652.67
2019-05-10T03:39:10.564Z,98651.13
2019-05-10T03:41:43.134Z,98646.27
2019-05-10T03:44:16.528Z,98658.48
2019-05-10T03:46:49.946Z,98650.73
2019-05-10T03:49:23.230Z,98656.55
2019-05-10T03:51:56.262Z,98653.45
2019-05-10T03:54:28.867Z,98663.70
2019-05-10T03:57:12.965Z,98657.89
2019-05-10T03:59:37.551Z,98657.13
2019-05-10T04:02:10.361Z,98664.67
2019-05-10T04:04:43.433Z,98663.14
2019-05-10T04:07:16.094Z,98662.56
2019-05-10T04:09:49.879Z,98668.56
2019-05-10T04:12:23.400Z,98665.06
2019-05-10T04:14:56.563Z,98663.70
2019-05-10T04:17:30.294Z,98668.34
2019-05-10T04:20:03.327Z,98672.98
2019-05-10T04:22:36.897Z,98674.34
2019-05-10T04:25:09.480Z,98673.95
2019-05-10T04:27:42.773Z,98675.29
2019-05-10T04:30:17.281Z,98681.89
2019-05-10T04:32:50.354Z,98676.83
2019-05-10T04:35:23.930Z,98671.22
2019-05-10T04:37:56.533Z,98681.86
2019-05-10T04:40:30.181Z,98687.67
2019-05-10T04:43:02.753Z,98691.73
2019-05-10T04:45:36.236Z,98684.56
2019-05-10T04:48:08.970Z,98691.34
2019-05-10T04:50:42.192Z,98696.41
2019-05-10T04:53:15.610Z,98693.70
2019-05-10T04:55:49.349Z,98693.70
2019-05-10T04:58:22.586Z,98694.44
2019-05-10T05:00:55.982Z,98693.30
2019-05-10T05:03:29.699Z,98691.55
2019-05-10T05:06:02.724Z,98694.83
2019-05-10T05:08:36.082Z,98696.36
2019-05-10T05:11:09.859Z,98706.64
2019-05-10T05:13:43.105Z,98704.51
2019-05-10T05:16:17.292Z,98707.03
2019-05-10T05:18:50.903Z,98707.61
2019-05-10T05:21:24.379Z,98711.88
2019-05-10T05:23:58.048Z,98708.96
2019-05-10T05:26:30.973Z,98707.81
2019-05-10T05:29:03.652Z,98707.81
2019-05-10T05:31:36.273Z,98713.23
2019-05-10T05:34:10.135Z,98712.06
2019-05-10T05:36:43.041Z,98714.39
2019-05-10T05:39:17.449Z,98712.86
2019-05-10T05:41:54.164Z,98721.00
2019-05-10T05:44:27.907Z,98720.03
2019-05-10T05:47:04.655Z,98723.33
2019-05-10T05:49:36.974Z,98723.54
2019-05-10T05:52:10.611Z,98730.91
2019-05-10T05:54:43.971Z,98729.56
2019-05-10T05:57:17.655Z,98728.42
2019-05-10T05:59:57.299Z,98736.34
2019-05-10T06:02:28.793Z,98732.66
2019-05-10T06:05:01.405Z,98736.16
2019-05-10T06:07:37.960Z,98738.27
2019-05-10T06:10:17.304Z,98740.41
2019-05-10T06:12:50.569Z,98751.09
2019-05-10T06:15:28.843Z,98744.31
2019-05-10T06:18:03.659Z,98744.89
2019-05-10T06:20:38.314Z,98754.59
2019-05-10T06:23:10.629Z,98756.71
2019-05-10T06:25:44.163Z,98753.81
2019-05-10T06:28:28.706Z,98761.00
2019-05-10T06:30:54.039Z,98758.67
2019-05-10T06:33:27.067Z,98766.42
2019-05-10T06:35:59.379Z,98766.03
2019-05-10T06:38:32.428Z,98769.52
2019-05-10T06:41:10.265Z,98776.88
2019-05-10T06:43:45.706Z,98773.98
2019-05-10T06:46:15.953Z,98779.05
2019-05-10T06:48:49.490Z,98780.81
2019-05-10T06:51:23.175Z,98786.45
2019-05-10T06:53:56.870Z,98791.49
2019-05-10T06:56:29.873Z,98794.96
2019-05-10T06:59:13.033Z,98801.96
2019-05-10T07:01:44.882Z,98805.86
2019-05-10T07:04:14.077Z,98803.91
2019-05-10T07:06:46.752Z,98812.44
2019-05-10T07:09:20.834Z,98815.77
2019-05-10T07:11:54.198Z,98814.36
2019-05-10T07:14:27.626Z,98824.27
2019-05-10T07:17:03.086Z,98819.63
2019-05-10T07:19:42.008Z,98827.61
2019-05-10T07:22:11.980Z,98833.66
2019-05-10T07:24:44.739Z,98837.52
2019-05-10T07:27:17.456Z,98842.77
2019-05-10T07:29:50.900Z,98851.48
2019-05-10T07:32:24.681Z,98853.23
2019-05-10T07:35:01.048Z,98853.98
2019-05-10T07:37:34.483Z,98860.81
2019-05-10T07:40:08.300Z,98865.09
2019-05-10T07:42:45.612Z,98860.85
2019-05-10T07:45:18.688Z,98866.89
2019-05-10T07:47:52.776Z,98879.91
2019-05-10T07:50:25.663Z,98883.05
2019-05-10T07:52:58.837Z,98878.38
2019-05-10T07:55:32.357Z,98886.93
2019-05-10T07:58:07.071Z,98891.97
2019-05-10T08:00:44.575Z,98890.39
2019-05-10T08:03:23.033Z,98899.36
2019-05-10T08:05:56.976Z,98908.69
2019-05-10T08:08:26.140Z,98908.12
2019-05-10T08:10:59.425Z,98907.91
2019-05-10T08:13:33.171Z,98910.27
2019-05-10T08:16:11.615Z,98917.59
2019-05-10T08:18:42.426Z,98920.84
2019-05-10T08:21:22.477Z,98935.38
2019-05-10T08:23:51.906Z,98927.57
2019-05-10T08:26:26.039Z,98937.34
2019-05-10T08:29:02.134Z,98938.55
2019-05-10T08:31:40.364Z,98945.20
2019-05-10T08:34:11.753Z,98945.49
2019-05-10T08:36:47.658Z,98955.52
2019-05-10T08:39:22.282Z,98958.14
2019-05-10T08:42:03.988Z,98965.59
2019-05-10T08:44:29.800Z,98966.11
2019-05-10T08:47:07.623Z,98965.89
2019-05-10T08:49:53.902Z,98967.57
2019-05-10T08:52:19.387Z,98969.45
2019-05-10T08:54:50.138Z,98977.23
2019-05-10T08:57:22.359Z,98989.14
2019-05-10T09:00:06.595Z,98987.66
2019-05-10T09:02:32.781Z,98996.14
2019-05-10T09:05:05.058Z,98994.64
2019-05-10T09:07:39.185Z,99000.16
2019-05-10T09:10:12.778Z,99009.14
2019-05-10T09:12:50.877Z,99014.25
2019-05-10T09:15:22.310Z,99014.59
2019-05-10T09:17:58.327Z,99015.73
2019-05-10T09:20:31.808Z,99022.80
2019-05-10T09:23:08.720Z,99026.62
2019-05-10T09:25:42.591Z,99022.74
2019-05-10T09:28:17.100Z,99032.25
2019-05-10T09:30:57.546Z,99034.86
2019-05-10T09:33:24.483Z,99030.82
2019-05-10T09:35:59.303Z,99033.34
2019-05-10T09:38:37.129Z,99037.81
2019-05-10T09:41:07.759Z,99043.69
2019-05-10T09:43:48.503Z,99043.02
2019-05-10T09:46:16.235Z,99046.02
2019-05-10T09:48:54.568Z,99055.77
2019-05-10T09:51:30.096Z,99058.73
2019-05-10T09:54:00.600Z,99055.26
2019-05-10T09:56:39.639Z,99059.33
2019-05-10T09:59:10.723Z,99065.15
2019-05-10T10:01:43.696Z,99072.58
2019-05-10T10:04:17.872Z,99073.96
2019-05-10T10:06:52.935Z,99076.33
2019-05-10T10:09:33.908Z,99081.22
2019-05-10T10:12:03.169Z,99085.88
2019-05-10T10:14:39.323Z,99099.57
2019-05-10T10:17:12.903Z,99096.57
2019-05-10T10:19:47.998Z,99097.75
2019-05-10T10:22:21.621Z,99098.64
2019-05-10T10:24:58.356Z,99105.20
2019-05-10T10:27:34.493Z,99101.77
2019-05-10T10:30:06.593Z,99114.35
2019-05-10T10:32:44.426Z,99109.87
2019-05-10T10:35:26.132Z,99117.60
2019-05-10T10:37:57.590Z,99116.36
2019-05-10T10:40:35.325Z,99121.09
2019-05-10T10:43:07.469Z,99125.69
2019-05-10T10:45:40.808Z,99127.95
2019-05-10T10:48:14.339Z,99130.28
2019-05-10T10:50:51.245Z,99131.09
2019-05-10T10:53:22.763Z,99134.34
2019-05-10T10:56:00.869Z,99139.35
2019-05-10T10:58:31.085Z,99139.20
2019-05-10T11:01:10.731Z,99137.03
2019-05-10T11:03:40.315Z,99134.23
2019-05-10T11:06:15.431Z,99138.95
2019-05-10T11:08:51.678Z,99134.84
2019-05-10T11:11:24.358Z,99144.23
2019-05-10T11:14:04.815Z,99135.37
2019-05-10T11:16:33.659Z,99141.99
2019-05-10T11:19:11.485Z,99151.32
2019-05-10T11:21:41.890Z,99146.81
2019-05-10T11:24:17.920Z,99146.66
2019-05-10T11:26:51.711Z,99152.44
2019-05-10T11:29:28.046Z,99150.08
2019-05-10T11:32:15.193Z,99156.50
2019-05-10T11:34:38.975Z,99154.34
2019-05-10T11:37:14.775Z,99154.84
2019-05-10T11:39:50.315Z,99161.36
2019-05-10T11:42:25.085Z,99156.98
2019-05-10T11:45:00.814Z,99164.95
2019-05-10T11:47:34.551Z,99154.66
2019-05-10T11:50:10.468Z,99163.58
2019-05-10T11:52:43.875Z,99167.74
2019-05-10T11:55:17.480Z,99164.41
2019-05-10T11:58:02.083Z,99166.38
2019-05-10T12:00:31.290Z,99168.39
2019-05-10T12:03:07.756Z,99169.30
2019-05-10T12:05:37.976Z,99167.38
2019-05-10T12:08:12.995Z,99164.33
2019-05-10T12:10:53.071Z,99170.02
2019-05-10T12:13:25.004Z,99167.92
2019-05-10T12:15:56.877Z,99166.97
2019-05-10T12:18:32.420Z,99166.41
2019-05-10T12:21:09.582Z,99160.49
2019-05-10T12:23:50.386Z,99164.68
2019-05-10T12:28:52.572Z,99166.86
2019-05-10T12:31:25.619Z,99166.86
2019-05-10T12:34:02.554Z,99173.17
2019-05-10T12:36:35.005Z,99172.56
2019-05-10T12:39:11.564Z,99184.73
2019-05-10T12:41:47.798Z,99186.91
2019-05-10T12:44:20.093Z,99189.03
2019-05-10T12:46:54.481Z,99190.11
2019-05-10T12:49:28.093Z,99193.69
2019-05-10T12:52:03.346Z,99193.33
2019-05-10T12:54:36.442Z,99196.62
2019-05-10T12:57:09.844Z,99198.94
2019-05-10T12:59:43.136Z,99203.53
2019-05-10T13:02:24.442Z,99210.45
2019-05-10T13:04:58.124Z,99206.52
2019-05-10T13:07:31.124Z,99206.62
2019-05-10T13:10:07.744Z,99216.83
2019-05-10T13:12:44.191Z,99221.83
2019-05-10T13:15:15.720Z,99226.59
2019-05-10T13:17:51.226Z,99226.63
2019-05-10T13:20:24.554Z,99225.42
2019-05-10T13:22:56.990Z,99229.80
2019-05-10T13:25:30.477Z,99234.70
2019-05-10T13:28:11.054Z,99228.78
2019-05-10T13:30:40.168Z,99229.28
2019-05-10T13:33:27.710Z,99223.37
2019-05-10T13:35:50.841Z,99231.58
2019-05-10T13:38:24.078Z,99230.33
2019-05-10T13:40:57.321Z,99232.81
2019-05-10T13:43:30.105Z,99231.20
2019-05-10T13:46:03.348Z,99236.19
2019-05-10T13:48:38.299Z,99233.80
2019-05-10T13:51:11.355Z,99236.61
2019-05-10T13:53:45.143Z,99231.97
2019-05-10T13:56:18.349Z,99237.89
2019-05-10T13:58:51.428Z,99237.31
2019-05-10T14:01:24.518Z,99236.34
2019-05-10T14:04:01.152Z,99244.75
2019-05-10T14:06:33.542Z,99243.62
2019-05-10T14:09:07.417Z,99248.89
2019-05-10T14:11:46.658Z,99247.42
2019-05-10T14:14:20.541Z,99248.91
2019-05-10T14:16:51.467Z,99243.73
2019-05-10T14:19:25.407Z,99245.59
2019-05-10T14:21:59.071Z,99252.39
2019-05-10T14:24:34.885Z,99256.19
2019-05-10T14:27:08.046Z,99251.03
2019-05-10T14:29:41.119Z,99253.03
2019-05-10T14:32:14.296Z,99259.81
2019-05-10T14:34:48.301Z,99258.45
2019-05-10T14:37:21.747Z,99261.13
2019-05-10T14:39:54.540Z,99262.62
2019-05-10T14:42:31.301Z,99266.36
2019-05-10T14:45:03.267Z,99266.66
2019-05-10T14:47:46.313Z,99267.16
2019-05-10T14:50:12.962Z,99266.86
2019-05-10T14:52:46.750Z,99269.03
2019-05-10T14:55:19.899Z,99270.96
2019-05-10T14:57:52.977Z,99274.44
2019-05-10T15:00:25.702Z,99281.95
2019-05-10T15:03:02.069Z,99280.69
2019-05-10T15:05:36.483Z,99278.28
2019-05-10T15:08:09.311Z,99286.45
2019-05-10T15:10:42.732Z,99285.52
2019-05-10T15:13:19.802Z,99289.05
2019-05-10T15:15:51.156Z,99285.97
2019-05-10T15:18:25.227Z,99289.39
2019-05-10T15:20:58.782Z,99287.17
2019-05-10T15:23:32.696Z,99296.54
2019-05-10T15:26:11.484Z,99293.23
2019-05-10T15:28:42.588Z,99303.61
2019-05-10T15:31:15.890Z,99302.54
2019-05-10T15:33:48.942Z,99304.28
2019-05-10T15:36:23.716Z,99301.62
2019-05-10T15:38:57.380Z,99300.05
2019-05-10T15:41:30.773Z,99300.94
2019-05-10T15:44:04.368Z,99301.37
2019-05-10T15:46:41.979Z,99298.20
2019-05-10T15:49:16.838Z,99299.16
2019-05-10T15:51:54.616Z,99300.64
2019-05-10T15:54:24.128Z,99305.05
2019-05-10T15:56:56.746Z,99311.89
2019-05-10T15:59:30.113Z,99313.18
2019-05-10T16:02:03.488Z,99318.53
2019-05-10T16:04:37.728Z,99317.63
2019-05-10T16:07:14.615Z,99313.14
2019-05-10T16:09:50.024Z,99314.70
2019-05-10T16:12:22.657Z,99311.31
2019-05-10T16:14:57.448Z,99321.27
2019-05-10T16:17:30.326Z,99316.20
2019-05-10T16:20:04.195Z,99316.75
2019-05-10T16:22:37.747Z,99319.47
2019-05-10T16:25:10.792Z,99316.55
